Amr R — XUAX5 — position and weather

sailwx.info

Track history (hours):
 
Tides and Currents Weather Stations Pressure Air Temp Water Temp Dewpoint Dewpoint Depression Visibility Wind Speed Wind Dir Waves Ship Positions

Amr R

Last reported at 2014-Aug-29 21:33 UTC. Time now 2014-Aug-29 22:26 UTC.
Position N 31°44' E 029°31'.

Length 130 m; draft 7.4 m.

Type: Cargo ship. MMSI: 514427000.

Date/timePositionNaut miles runAvg speedWind from/ knotsBaromVisibWave heightAir tempDewpointWater temp
2014-Aug-29 21:33N 31°44' E 029°31'297 9.2
2014-Aug-28 13:12N 36°17' E 027°09'16 9.2
2014-Aug-28 11:27N 36°31' E 027°01'8 9.1
2014-Aug-28 10:32N 36°38' E 026°55'9 9.2
2014-Aug-28 09:33N 36°46' E 026°49'9 9.0
2014-Aug-28 08:31N 36°53' E 026°42'9 9.0
2014-Aug-28 07:34N 37°00' E 026°36'9 8.8
2014-Aug-28 06:33N 37°07' E 026°28'9 8.5
2014-Aug-28 05:33N 37°12' E 026°20'8 8.4
2014-Aug-28 04:33N 37°18' E 026°12'11 9.0
2014-Aug-28 03:23N 37°24' E 026°01'35 8.5
2014-Aug-27 23:18N 37°56' E 025°47'6 8.4
2014-Aug-27 22:33N 38°02' E 025°45'8 8.4
2014-Aug-27 21:33N 38°11' E 025°45'9 8.8
2014-Aug-27 20:32N 38°20' E 025°45'28 9.0
2014-Aug-27 17:27N 38°48' E 025°45'8 9.0
2014-Aug-27 16:32N 38°56' E 025°46'12 8.8
2014-Aug-27 15:13N 39°07' E 025°45'16 9.0
2014-Aug-27 13:28N 39°23' E 025°47'8 9.2
2014-Aug-27 12:33N 39°31' E 025°49'33 8.3
2014-Aug-27 08:33N 40°01' E 026°08'1410.5
2014-Aug-27 07:14N 40°09' E 026°23'36 8.7
2014-Aug-27 03:07N 40°32' E 026°60'85 8.8
2014-Aug-26 17:27N 40°55' E 028°48'7 8.3
2014-Aug-26 16:33N 40°57' E 028°57'35 4.7
2014-Aug-26 09:04N 41°24' E 029°26'240 6.3
2014-Aug-24 19:12N 43°16' E 034°14'7 9.2
2014-Aug-24 18:29N 43°19' E 034°22'18 9.2
2014-Aug-24 16:33N 43°27' E 034°43'11 9.1
2014-Aug-24 15:18N 43°32' E 034°57'7 9.0
2014-Aug-24 14:33N 43°35' E 035°06'9 9.2
2014-Aug-24 13:33N 43°39' E 035°17'9 9.1
2014-Aug-24 12:33N 43°43' E 035°28'9 9.1
2014-Aug-24 11:31N 43°47' E 035°40'91 9.1
2014-Aug-24 01:33N 44°29' E 037°33'9 9.0
2014-Aug-24 00:33N 44°33' E 037°44'8 8.3
2014-Aug-23 23:33N 44°40' E 037°50'4 4.1
2014-Aug-23 22:33N 44°44' E 037°47'0 0.0
2014-Aug-23 21:31N 44°44' E 037°47'0 0.0
2014-Aug-23 20:31N 44°44' E 037°47'0 0.0
2014-Aug-23 19:31N 44°44' E 037°47'0 0.0
2014-Aug-23 03:31N 44°44' E 037°47'0 0.0
2014-Aug-23 02:31N 44°44' E 037°47'0 0.0
2014-Aug-23 01:28N 44°44' E 037°47'0 0.0
2014-Aug-23 00:31N 44°44' E 037°47'0 0.0
2014-Aug-22 23:31N 44°44' E 037°47'0 0.0
2014-Aug-22 22:31N 44°44' E 037°47'0 0.0
2014-Aug-22 21:31N 44°44' E 037°47'0 0.0
2014-Aug-22 20:31N 44°44' E 037°47'0 0.0
2014-Aug-22 19:31N 44°44' E 037°47'0 0.0
2014-Aug-22 18:31N 44°44' E 037°47'0 0.0
2014-Aug-22 17:31N 44°44' E 037°47'0 0.0
2014-Aug-22 16:31N 44°44' E 037°47'0 0.0
2014-Aug-22 15:31N 44°44' E 037°47'0 0.0
2014-Aug-22 14:19N 44°44' E 037°47'0 0.0
2014-Aug-22 13:25N 44°44' E 037°47'0 0.0
2014-Aug-22 12:31N 44°44' E 037°47'0 0.0
2014-Aug-22 11:31N 44°44' E 037°47'0 0.0
2014-Aug-22 10:31N 44°44' E 037°47'0 0.0
2014-Aug-22 09:31N 44°44' E 037°47'0 0.0
2014-Aug-22 08:31N 44°44' E 037°47'0 0.0
2014-Aug-22 07:31N 44°44' E 037°47'0 0.0
2014-Aug-22 06:31N 44°44' E 037°47'0 0.0
2014-Aug-22 05:31N 44°44' E 037°47'0 0.0
2014-Aug-22 04:31N 44°44' E 037°47'0 0.0
2014-Aug-22 03:31N 44°44' E 037°47'0 0.0
2014-Aug-22 02:31N 44°44' E 037°47'0 0.0
2014-Aug-22 01:31N 44°44' E 037°47'0 0.0
2014-Aug-22 00:31N 44°44' E 037°47'0 0.0
2014-Aug-21 23:31N 44°44' E 037°47'0 0.0
2014-Aug-21 22:31N 44°44' E 037°47'0 0.0
2014-Aug-21 21:31N 44°44' E 037°47'0 0.0
2014-Aug-21 20:31N 44°44' E 037°47'0 0.0
2014-Aug-21 19:31N 44°44' E 037°47'0 0.0
2014-Aug-21 18:31N 44°44' E 037°47'0 0.0
2014-Aug-21 17:31N 44°44' E 037°47'0 0.0
2014-Aug-21 16:31N 44°44' E 037°47'0 0.0
2014-Aug-21 15:31N 44°44' E 037°47'0 0.0
2014-Aug-21 14:31N 44°44' E 037°47'0 0.0
2014-Aug-21 13:31N 44°44' E 037°47'0 0.0
2014-Aug-21 12:31N 44°44' E 037°47'0 0.0
2014-Aug-21 11:31N 44°44' E 037°47'0 0.0
2014-Aug-21 10:31N 44°44' E 037°47'0 0.0
2014-Aug-21 09:31N 44°44' E 037°47'0 0.0
2014-Aug-21 08:31N 44°44' E 037°47'0 0.0
2014-Aug-21 07:31N 44°44' E 037°47'0 0.0
2014-Aug-21 06:31N 44°44' E 037°47'0 0.0
2014-Aug-21 05:31N 44°44' E 037°47'0 0.0
2014-Aug-21 04:31N 44°44' E 037°47'0 0.0
2014-Aug-21 03:31N 44°44' E 037°47'0 0.0
2014-Aug-21 02:31N 44°44' E 037°47'0 0.0
2014-Aug-21 01:31N 44°44' E 037°47'0 0.0
2014-Aug-21 00:31N 44°44' E 037°47'0 0.0
2014-Aug-20 23:31N 44°44' E 037°47'0 0.0
2014-Aug-20 22:31N 44°44' E 037°47'0 0.0
2014-Aug-20 21:31N 44°44' E 037°47'0 0.0
2014-Aug-20 20:31N 44°44' E 037°47'0 0.0
2014-Aug-20 19:31N 44°44' E 037°47'0 0.0
2014-Aug-20 18:31N 44°44' E 037°47'0 0.0
2014-Aug-20 17:31N 44°44' E 037°47'0 0.0
2014-Aug-20 16:31N 44°44' E 037°47'0 0.0
2014-Aug-20 15:28N 44°44' E 037°47'0 0.0
2014-Aug-20 14:31N 44°44' E 037°47'0 0.0
2014-Aug-20 13:31N 44°44' E 037°47'4 4.2
2014-Aug-20 12:33N 44°40' E 037°50'4 3.9
2014-Aug-20 11:33N 44°37' E 037°53'2 2.2
2014-Aug-20 10:32N 44°36' E 037°56'0 0.0
2014-Aug-20 09:32N 44°36' E 037°56'0 0.0
2014-Aug-20 08:29N 44°36' E 037°56'0 0.0
2014-Aug-20 07:32N 44°36' E 037°56'0 0.0
2014-Aug-20 06:32N 44°36' E 037°56'0 0.0
2014-Aug-20 05:32N 44°36' E 037°56'0 0.0
2014-Aug-20 04:32N 44°36' E 037°56'0 0.0
2014-Aug-20 03:32N 44°36' E 037°56'0 0.0
2014-Aug-20 02:32N 44°36' E 037°56'0 0.0
2014-Aug-20 01:32N 44°36' E 037°56'0 0.0
2014-Aug-20 00:32N 44°36' E 037°56'0 0.0
2014-Aug-19 23:32N 44°36' E 037°56'0 0.0
2014-Aug-19 22:32N 44°36' E 037°56'  
Track history (hours):
 
Tides and Currents Weather Stations Pressure Air Temp Water Temp Dewpoint Dewpoint Depression Visibility Wind Speed Wind Dir Waves Ship Positions

Amr R

Last reported at 2014-Aug-29 21:33 UTC. Time now 2014-Aug-29 22:26 UTC.
Position N 31°44' E 029°31'.

Length 130 m; draft 7.4 m.

Type: Cargo ship. MMSI: 514427000.

Date/timePositionNaut miles runAvg speedWind from/ knotsBaromVisibWave heightAir tempDewpointWater temp
2014-Aug-29 21:33N 31°44' E 029°31'297 9.2
2014-Aug-28 13:12N 36°17' E 027°09'16 9.2
2014-Aug-28 11:27N 36°31' E 027°01'8 9.1
2014-Aug-28 10:32N 36°38' E 026°55'9 9.2
2014-Aug-28 09:33N 36°46' E 026°49'9 9.0
2014-Aug-28 08:31N 36°53' E 026°42'9 9.0
2014-Aug-28 07:34N 37°00' E 026°36'9 8.8
2014-Aug-28 06:33N 37°07' E 026°28'9 8.5
2014-Aug-28 05:33N 37°12' E 026°20'8 8.4
2014-Aug-28 04:33N 37°18' E 026°12'11 9.0
2014-Aug-28 03:23N 37°24' E 026°01'35 8.5
2014-Aug-27 23:18N 37°56' E 025°47'6 8.4
2014-Aug-27 22:33N 38°02' E 025°45'8 8.4
2014-Aug-27 21:33N 38°11' E 025°45'9 8.8
2014-Aug-27 20:32N 38°20' E 025°45'28 9.0
2014-Aug-27 17:27N 38°48' E 025°45'8 9.0
2014-Aug-27 16:32N 38°56' E 025°46'12 8.8
2014-Aug-27 15:13N 39°07' E 025°45'16 9.0
2014-Aug-27 13:28N 39°23' E 025°47'8 9.2
2014-Aug-27 12:33N 39°31' E 025°49'33 8.3
2014-Aug-27 08:33N 40°01' E 026°08'1410.5
2014-Aug-27 07:14N 40°09' E 026°23'36 8.7
2014-Aug-27 03:07N 40°32' E 026°60'85 8.8
2014-Aug-26 17:27N 40°55' E 028°48'7 8.3
2014-Aug-26 16:33N 40°57' E 028°57'35 4.7
2014-Aug-26 09:04N 41°24' E 029°26'240 6.3
2014-Aug-24 19:12N 43°16' E 034°14'7 9.2
2014-Aug-24 18:29N 43°19' E 034°22'18 9.2
2014-Aug-24 16:33N 43°27' E 034°43'11 9.1
2014-Aug-24 15:18N 43°32' E 034°57'7 9.0
2014-Aug-24 14:33N 43°35' E 035°06'9 9.2
2014-Aug-24 13:33N 43°39' E 035°17'9 9.1
2014-Aug-24 12:33N 43°43' E 035°28'9 9.1
2014-Aug-24 11:31N 43°47' E 035°40'91 9.1
2014-Aug-24 01:33N 44°29' E 037°33'9 9.0
2014-Aug-24 00:33N 44°33' E 037°44'8 8.3
2014-Aug-23 23:33N 44°40' E 037°50'4 4.1
2014-Aug-23 22:33N 44°44' E 037°47'0 0.0
2014-Aug-23 21:31N 44°44' E 037°47'0 0.0
2014-Aug-23 20:31N 44°44' E 037°47'0 0.0
2014-Aug-23 19:31N 44°44' E 037°47'0 0.0
2014-Aug-23 03:31N 44°44' E 037°47'0 0.0
2014-Aug-23 02:31N 44°44' E 037°47'0 0.0
2014-Aug-23 01:28N 44°44' E 037°47'0 0.0
2014-Aug-23 00:31N 44°44' E 037°47'0 0.0
2014-Aug-22 23:31N 44°44' E 037°47'0 0.0
2014-Aug-22 22:31N 44°44' E 037°47'0 0.0
2014-Aug-22 21:31N 44°44' E 037°47'0 0.0
2014-Aug-22 20:31N 44°44' E 037°47'0 0.0
2014-Aug-22 19:31N 44°44' E 037°47'0 0.0
2014-Aug-22 18:31N 44°44' E 037°47'0 0.0
2014-Aug-22 17:31N 44°44' E 037°47'0 0.0
2014-Aug-22 16:31N 44°44' E 037°47'0 0.0
2014-Aug-22 15:31N 44°44' E 037°47'0 0.0
2014-Aug-22 14:19N 44°44' E 037°47'0 0.0
2014-Aug-22 13:25N 44°44' E 037°47'0 0.0
2014-Aug-22 12:31N 44°44' E 037°47'0 0.0
2014-Aug-22 11:31N 44°44' E 037°47'0 0.0
2014-Aug-22 10:31N 44°44' E 037°47'0 0.0
2014-Aug-22 09:31N 44°44' E 037°47'0 0.0
2014-Aug-22 08:31N 44°44' E 037°47'0 0.0
2014-Aug-22 07:31N 44°44' E 037°47'0 0.0
2014-Aug-22 06:31N 44°44' E 037°47'0 0.0
2014-Aug-22 05:31N 44°44' E 037°47'0 0.0
2014-Aug-22 04:31N 44°44' E 037°47'0 0.0
2014-Aug-22 03:31N 44°44' E 037°47'0 0.0
2014-Aug-22 02:31N 44°44' E 037°47'0 0.0
2014-Aug-22 01:31N 44°44' E 037°47'0 0.0
2014-Aug-22 00:31N 44°44' E 037°47'0 0.0
2014-Aug-21 23:31N 44°44' E 037°47'0 0.0
2014-Aug-21 22:31N 44°44' E 037°47'0 0.0
2014-Aug-21 21:31N 44°44' E 037°47'0 0.0
2014-Aug-21 20:31N 44°44' E 037°47'0 0.0
2014-Aug-21 19:31N 44°44' E 037°47'0 0.0
2014-Aug-21 18:31N 44°44' E 037°47'0 0.0
2014-Aug-21 17:31N 44°44' E 037°47'0 0.0
2014-Aug-21 16:31N 44°44' E 037°47'0 0.0
2014-Aug-21 15:31N 44°44' E 037°47'0 0.0
2014-Aug-21 14:31N 44°44' E 037°47'0 0.0
2014-Aug-21 13:31N 44°44' E 037°47'0 0.0
2014-Aug-21 12:31N 44°44' E 037°47'0 0.0
2014-Aug-21 11:31N 44°44' E 037°47'0 0.0
2014-Aug-21 10:31N 44°44' E 037°47'0 0.0
2014-Aug-21 09:31N 44°44' E 037°47'0 0.0
2014-Aug-21 08:31N 44°44' E 037°47'0 0.0
2014-Aug-21 07:31N 44°44' E 037°47'0 0.0
2014-Aug-21 06:31N 44°44' E 037°47'0 0.0
2014-Aug-21 05:31N 44°44' E 037°47'0 0.0
2014-Aug-21 04:31N 44°44' E 037°47'0 0.0
2014-Aug-21 03:31N 44°44' E 037°47'0 0.0
2014-Aug-21 02:31N 44°44' E 037°47'0 0.0
2014-Aug-21 01:31N 44°44' E 037°47'0 0.0
2014-Aug-21 00:31N 44°44' E 037°47'0 0.0
2014-Aug-20 23:31N 44°44' E 037°47'0 0.0
2014-Aug-20 22:31N 44°44' E 037°47'0 0.0
2014-Aug-20 21:31N 44°44' E 037°47'0 0.0
2014-Aug-20 20:31N 44°44' E 037°47'0 0.0
2014-Aug-20 19:31N 44°44' E 037°47'0 0.0
2014-Aug-20 18:31N 44°44' E 037°47'0 0.0
2014-Aug-20 17:31N 44°44' E 037°47'0 0.0
2014-Aug-20 16:31N 44°44' E 037°47'0 0.0
2014-Aug-20 15:28N 44°44' E 037°47'0 0.0
2014-Aug-20 14:31N 44°44' E 037°47'0 0.0
2014-Aug-20 13:31N 44°44' E 037°47'4 4.2
2014-Aug-20 12:33N 44°40' E 037°50'4 3.9
2014-Aug-20 11:33N 44°37' E 037°53'2 2.2
2014-Aug-20 10:32N 44°36' E 037°56'0 0.0
2014-Aug-20 09:32N 44°36' E 037°56'0 0.0
2014-Aug-20 08:29N 44°36' E 037°56'0 0.0
2014-Aug-20 07:32N 44°36' E 037°56'0 0.0
2014-Aug-20 06:32N 44°36' E 037°56'0 0.0
2014-Aug-20 05:32N 44°36' E 037°56'0 0.0
2014-Aug-20 04:32N 44°36' E 037°56'0 0.0
2014-Aug-20 03:32N 44°36' E 037°56'0 0.0
2014-Aug-20 02:32N 44°36' E 037°56'0 0.0
2014-Aug-20 01:32N 44°36' E 037°56'0 0.0
2014-Aug-20 00:32N 44°36' E 037°56'0 0.0
2014-Aug-19 23:32N 44°36' E 037°56'0 0.0
2014-Aug-19 22:32N 44°36' E 037°56'  

Dump ship's entire track history